sensor_id;sensor_type;location;lat;lon;timestamp;P1;durP1;ratioP1;P2;durP2;ratioP2
21581;SDS011;10952;50.836;4.348;2023-06-14T00:01:24;8.73;;;5.80;;
21581;SDS011;10952;50.836;4.348;2023-06-14T00:03:50;9.27;;;6.68;;
21581;SDS011;10952;50.836;4.348;2023-06-14T00:06:15;11.95;;;6.53;;
21581;SDS011;10952;50.836;4.348;2023-06-14T00:08:42;14.90;;;6.25;;
21581;SDS011;10952;50.836;4.348;2023-06-14T00:11:07;9.88;;;6.40;;
21581;SDS011;10952;50.836;4.348;2023-06-14T00:13:33;11.00;;;6.70;;
21581;SDS011;10952;50.836;4.348;2023-06-14T00:15:59;9.70;;;6.03;;
21581;SDS011;10952;50.836;4.348;2023-06-14T00:18:25;12.82;;;6.28;;
21581;SDS011;10952;50.836;4.348;2023-06-14T00:20:54;10.85;;;6.03;;
21581;SDS011;10952;50.836;4.348;2023-06-14T00:23:20;11.00;;;6.97;;
21581;SDS011;10952;50.836;4.348;2023-06-14T00:25:46;9.60;;;6.00;;
21581;SDS011;10952;50.836;4.348;2023-06-14T00:28:12;11.43;;;6.45;;
21581;SDS011;10952;50.836;4.348;2023-06-14T00:30:37;11.98;;;6.20;;
21581;SDS011;10952;50.836;4.348;2023-06-14T00:33:03;10.05;;;5.60;;
21581;SDS011;10952;50.836;4.348;2023-06-14T00:35:29;10.77;;;6.22;;
21581;SDS011;10952;50.836;4.348;2023-06-14T00:37:55;9.13;;;6.00;;
21581;SDS011;10952;50.836;4.348;2023-06-14T00:40:21;12.95;;;5.90;;
21581;SDS011;10952;50.836;4.348;2023-06-14T00:42:47;9.95;;;6.20;;
21581;SDS011;10952;50.836;4.348;2023-06-14T00:45:13;7.97;;;6.00;;
21581;SDS011;10952;50.836;4.348;2023-06-14T00:47:38;8.52;;;5.90;;
21581;SDS011;10952;50.836;4.348;2023-06-14T00:50:06;10.27;;;6.43;;
21581;SDS011;10952;50.836;4.348;2023-06-14T00:52:32;11.43;;;6.28;;
21581;SDS011;10952;50.836;4.348;2023-06-14T00:54:59;10.05;;;6.38;;
21581;SDS011;10952;50.836;4.348;2023-06-14T00:57:25;10.32;;;5.70;;
21581;SDS011;10952;50.836;4.348;2023-06-14T00:59:52;13.57;;;6.93;;
21581;SDS011;10952;50.836;4.348;2023-06-14T01:02:18;9.48;;;6.10;;
21581;SDS011;10952;50.836;4.348;2023-06-14T01:04:45;10.07;;;5.97;;
21581;SDS011;10952;50.836;4.348;2023-06-14T01:12:39;12.18;;;6.78;;
21581;SDS011;10952;50.836;4.348;2023-06-14T01:15:16;11.70;;;6.38;;
21581;SDS011;10952;50.836;4.348;2023-06-14T01:17:42;11.05;;;6.32;;
21581;SDS011;10952;50.836;4.348;2023-06-14T01:20:11;11.80;;;7.13;;
21581;SDS011;10952;50.836;4.348;2023-06-14T01:22:48;10.25;;;6.10;;
21581;SDS011;10952;50.836;4.348;2023-06-14T01:25:21;11.05;;;6.38;;
21581;SDS011;10952;50.836;4.348;2023-06-14T01:27:51;11.15;;;6.60;;
21581;SDS011;10952;50.836;4.348;2023-06-14T01:30:28;9.88;;;6.40;;
21581;SDS011;10952;50.836;4.348;2023-06-14T01:32:56;8.43;;;6.43;;
21581;SDS011;10952;50.836;4.348;2023-06-14T01:35:23;10.13;;;6.70;;
21581;SDS011;10952;50.836;4.348;2023-06-14T01:37:49;8.80;;;6.55;;
21581;SDS011;10952;50.836;4.348;2023-06-14T01:40:17;12.13;;;7.38;;
21581;SDS011;10952;50.836;4.348;2023-06-14T01:42:45;9.52;;;6.28;;
21581;SDS011;10952;50.836;4.348;2023-06-14T01:45:13;14.13;;;7.07;;
21581;SDS011;10952;50.836;4.348;2023-06-14T01:47:39;10.80;;;7.07;;
21581;SDS011;10952;50.836;4.348;2023-06-14T01:50:06;11.10;;;6.93;;
21581;SDS011;10952;50.836;4.348;2023-06-14T01:52:32;12.97;;;6.97;;
21581;SDS011;10952;50.836;4.348;2023-06-14T01:54:57;13.47;;;7.07;;
21581;SDS011;10952;50.836;4.348;2023-06-14T01:57:23;10.60;;;6.17;;
21581;SDS011;10952;50.836;4.348;2023-06-14T01:59:51;26.70;;;7.30;;
21581;SDS011;10952;50.836;4.348;2023-06-14T02:02:17;11.67;;;6.33;;
21581;SDS011;10952;50.836;4.348;2023-06-14T02:04:43;9.23;;;6.53;;
21581;SDS011;10952;50.836;4.348;2023-06-14T02:07:09;15.97;;;7.07;;
21581;SDS011;10952;50.836;4.348;2023-06-14T02:09:34;12.40;;;7.07;;
21581;SDS011;10952;50.836;4.348;2023-06-14T02:12:01;17.43;;;6.97;;
21581;SDS011;10952;50.836;4.348;2023-06-14T02:14:26;12.90;;;7.63;;
21581;SDS011;10952;50.836;4.348;2023-06-14T02:16:52;9.37;;;6.53;;
21581;SDS011;10952;50.836;4.348;2023-06-14T02:19:18;15.13;;;7.50;;
21581;SDS011;10952;50.836;4.348;2023-06-14T02:21:45;15.70;;;7.20;;
21581;SDS011;10952;50.836;4.348;2023-06-14T02:24:11;14.17;;;7.47;;
21581;SDS011;10952;50.836;4.348;2023-06-14T02:26:37;16.40;;;7.10;;
21581;SDS011;10952;50.836;4.348;2023-06-14T02:29:03;13.70;;;7.67;;
21581;SDS011;10952;50.836;4.348;2023-06-14T02:31:30;10.50;;;7.60;;
21581;SDS011;10952;50.836;4.348;2023-06-14T02:33:56;11.27;;;7.27;;
21581;SDS011;10952;50.836;4.348;2023-06-14T02:36:22;13.67;;;8.33;;
21581;SDS011;10952;50.836;4.348;2023-06-14T02:38:48;11.20;;;7.13;;
21581;SDS011;10952;50.836;4.348;2023-06-14T02:41:14;11.53;;;7.73;;
21581;SDS011;10952;50.836;4.348;2023-06-14T02:43:39;10.10;;;7.23;;
21581;SDS011;10952;50.836;4.348;2023-06-14T02:46:05;11.77;;;7.37;;
21581;SDS011;10952;50.836;4.348;2023-06-14T02:48:32;10.57;;;7.33;;
21581;SDS011;10952;50.836;4.348;2023-06-14T02:50:57;11.93;;;8.23;;
21581;SDS011;10952;50.836;4.348;2023-06-14T02:53:23;12.23;;;7.70;;
21581;SDS011;10952;50.836;4.348;2023-06-14T02:55:48;15.00;;;8.10;;
21581;SDS011;10952;50.836;4.348;2023-06-14T02:58:14;11.30;;;7.67;;
21581;SDS011;10952;50.836;4.348;2023-06-14T03:00:41;14.17;;;8.03;;
21581;SDS011;10952;50.836;4.348;2023-06-14T03:03:07;16.73;;;8.33;;
21581;SDS011;10952;50.836;4.348;2023-06-14T03:05:46;20.73;;;8.70;;
21581;SDS011;10952;50.836;4.348;2023-06-14T03:08:14;18.03;;;8.47;;
21581;SDS011;10952;50.836;4.348;2023-06-14T03:10:50;15.97;;;8.40;;
21581;SDS011;10952;50.836;4.348;2023-06-14T03:13:16;17.00;;;9.43;;
21581;SDS011;10952;50.836;4.348;2023-06-14T03:15:42;12.30;;;7.73;;
21581;SDS011;10952;50.836;4.348;2023-06-14T03:18:10;11.20;;;7.90;;
21581;SDS011;10952;50.836;4.348;2023-06-14T03:20:36;10.50;;;7.90;;
21581;SDS011;10952;50.836;4.348;2023-06-14T03:23:02;16.77;;;8.97;;
21581;SDS011;10952;50.836;4.348;2023-06-14T03:25:30;17.30;;;9.07;;
21581;SDS011;10952;50.836;4.348;2023-06-14T03:27:56;14.83;;;8.60;;
21581;SDS011;10952;50.836;4.348;2023-06-14T03:30:22;16.07;;;8.43;;
21581;SDS011;10952;50.836;4.348;2023-06-14T03:32:48;14.93;;;7.93;;
21581;SDS011;10952;50.836;4.348;2023-06-14T03:35:14;17.90;;;9.50;;
21581;SDS011;10952;50.836;4.348;2023-06-14T03:37:43;24.90;;;9.03;;
21581;SDS011;10952;50.836;4.348;2023-06-14T03:40:10;11.97;;;8.27;;
21581;SDS011;10952;50.836;4.348;2023-06-14T03:42:36;14.13;;;8.07;;
21581;SDS011;10952;50.836;4.348;2023-06-14T03:45:02;11.10;;;8.00;;
21581;SDS011;10952;50.836;4.348;2023-06-14T03:47:28;17.63;;;8.30;;
21581;SDS011;10952;50.836;4.348;2023-06-14T03:49:53;10.20;;;7.93;;
21581;SDS011;10952;50.836;4.348;2023-06-14T03:52:19;12.57;;;7.80;;
21581;SDS011;10952;50.836;4.348;2023-06-14T03:54:46;18.60;;;8.77;;
21581;SDS011;10952;50.836;4.348;2023-06-14T03:57:11;13.93;;;8.63;;
21581;SDS011;10952;50.836;4.348;2023-06-14T03:59:37;16.20;;;8.63;;
21581;SDS011;10952;50.836;4.348;2023-06-14T04:02:03;13.30;;;8.70;;
21581;SDS011;10952;50.836;4.348;2023-06-14T04:04:28;15.33;;;8.87;;
21581;SDS011;10952;50.836;4.348;2023-06-14T04:06:57;13.60;;;8.63;;
21581;SDS011;10952;50.836;4.348;2023-06-14T04:09:24;18.50;;;8.73;;
21581;SDS011;10952;50.836;4.348;2023-06-14T04:11:50;17.00;;;9.03;;
21581;SDS011;10952;50.836;4.348;2023-06-14T04:14:17;13.97;;;7.87;;
21581;SDS011;10952;50.836;4.348;2023-06-14T04:16:47;11.40;;;7.53;;
21581;SDS011;10952;50.836;4.348;2023-06-14T04:19:13;18.07;;;8.10;;
21581;SDS011;10952;50.836;4.348;2023-06-14T04:21:39;14.20;;;7.63;;
21581;SDS011;10952;50.836;4.348;2023-06-14T04:24:05;13.10;;;8.50;;
21581;SDS011;10952;50.836;4.348;2023-06-14T04:26:31;14.37;;;8.70;;
21581;SDS011;10952;50.836;4.348;2023-06-14T04:28:59;13.80;;;8.73;;
21581;SDS011;10952;50.836;4.348;2023-06-14T04:31:30;15.57;;;7.80;;
21581;SDS011;10952;50.836;4.348;2023-06-14T04:33:58;11.80;;;8.20;;
21581;SDS011;10952;50.836;4.348;2023-06-14T04:36:24;12.30;;;8.00;;
21581;SDS011;10952;50.836;4.348;2023-06-14T04:38:52;17.70;;;8.57;;
21581;SDS011;10952;50.836;4.348;2023-06-14T04:41:20;17.70;;;8.00;;
21581;SDS011;10952;50.836;4.348;2023-06-14T04:43:47;14.80;;;7.97;;
21581;SDS011;10952;50.836;4.348;2023-06-14T04:46:14;13.40;;;7.90;;
21581;SDS011;10952;50.836;4.348;2023-06-14T04:48:40;13.40;;;8.57;;
21581;SDS011;10952;50.836;4.348;2023-06-14T04:51:08;13.40;;;8.43;;
21581;SDS011;10952;50.836;4.348;2023-06-14T04:53:34;14.83;;;8.63;;
21581;SDS011;10952;50.836;4.348;2023-06-14T04:56:01;12.20;;;9.10;;
21581;SDS011;10952;50.836;4.348;2023-06-14T04:58:27;13.77;;;7.77;;
21581;SDS011;10952;50.836;4.348;2023-06-14T05:00:53;19.27;;;8.67;;
21581;SDS011;10952;50.836;4.348;2023-06-14T05:03:21;14.37;;;8.13;;
21581;SDS011;10952;50.836;4.348;2023-06-14T05:05:48;14.47;;;8.30;;
21581;SDS011;10952;50.836;4.348;2023-06-14T05:08:15;17.63;;;8.30;;
21581;SDS011;10952;50.836;4.348;2023-06-14T05:10:41;16.07;;;8.57;;
21581;SDS011;10952;50.836;4.348;2023-06-14T05:13:07;16.67;;;8.67;;
21581;SDS011;10952;50.836;4.348;2023-06-14T05:15:32;16.13;;;8.80;;
21581;SDS011;10952;50.836;4.348;2023-06-14T05:17:59;19.10;;;8.93;;
21581;SDS011;10952;50.836;4.348;2023-06-14T05:20:24;17.00;;;8.67;;
21581;SDS011;10952;50.836;4.348;2023-06-14T05:22:52;16.13;;;8.37;;
21581;SDS011;10952;50.836;4.348;2023-06-14T05:25:21;14.43;;;8.97;;
21581;SDS011;10952;50.836;4.348;2023-06-14T05:27:48;17.10;;;9.53;;
21581;SDS011;10952;50.836;4.348;2023-06-14T05:30:14;18.80;;;9.33;;
21581;SDS011;10952;50.836;4.348;2023-06-14T05:32:41;17.87;;;8.63;;
21581;SDS011;10952;50.836;4.348;2023-06-14T05:35:06;16.17;;;9.00;;
21581;SDS011;10952;50.836;4.348;2023-06-14T05:37:33;17.27;;;7.93;;
21581;SDS011;10952;50.836;4.348;2023-06-14T05:39:58;20.33;;;9.20;;
21581;SDS011;10952;50.836;4.348;2023-06-14T05:42:24;15.13;;;8.90;;
21581;SDS011;10952;50.836;4.348;2023-06-14T05:44:49;15.33;;;7.83;;
21581;SDS011;10952;50.836;4.348;2023-06-14T05:47:15;15.57;;;8.77;;
21581;SDS011;10952;50.836;4.348;2023-06-14T05:49:41;19.50;;;8.63;;
21581;SDS011;10952;50.836;4.348;2023-06-14T05:52:07;15.27;;;9.07;;
21581;SDS011;10952;50.836;4.348;2023-06-14T05:54:33;19.40;;;9.47;;
21581;SDS011;10952;50.836;4.348;2023-06-14T05:56:59;16.07;;;8.87;;
21581;SDS011;10952;50.836;4.348;2023-06-14T05:59:26;15.97;;;8.77;;
21581;SDS011;10952;50.836;4.348;2023-06-14T06:01:52;15.17;;;8.40;;
21581;SDS011;10952;50.836;4.348;2023-06-14T06:04:18;18.23;;;9.30;;
21581;SDS011;10952;50.836;4.348;2023-06-14T06:06:44;28.17;;;8.53;;
21581;SDS011;10952;50.836;4.348;2023-06-14T06:09:10;16.13;;;8.20;;
21581;SDS011;10952;50.836;4.348;2023-06-14T06:11:36;20.17;;;8.63;;
21581;SDS011;10952;50.836;4.348;2023-06-14T06:14:01;15.97;;;7.80;;
21581;SDS011;10952;50.836;4.348;2023-06-14T06:16:27;39.33;;;10.70;;
21581;SDS011;10952;50.836;4.348;2023-06-14T06:18:52;24.67;;;9.27;;
21581;SDS011;10952;50.836;4.348;2023-06-14T06:21:18;25.70;;;8.63;;
21581;SDS011;10952;50.836;4.348;2023-06-14T06:23:44;23.17;;;9.13;;
21581;SDS011;10952;50.836;4.348;2023-06-14T06:26:09;21.70;;;11.37;;
21581;SDS011;10952;50.836;4.348;2023-06-14T06:28:35;95.53;;;18.30;;
21581;SDS011;10952;50.836;4.348;2023-06-14T06:31:00;14.60;;;9.47;;
21581;SDS011;10952;50.836;4.348;2023-06-14T06:33:26;22.60;;;10.43;;
21581;SDS011;10952;50.836;4.348;2023-06-14T06:35:52;19.37;;;8.50;;
21581;SDS011;10952;50.836;4.348;2023-06-14T06:38:17;19.83;;;7.77;;
21581;SDS011;10952;50.836;4.348;2023-06-14T06:40:44;13.13;;;7.77;;
21581;SDS011;10952;50.836;4.348;2023-06-14T06:43:10;14.53;;;7.87;;
21581;SDS011;10952;50.836;4.348;2023-06-14T06:45:38;12.07;;;7.30;;
21581;SDS011;10952;50.836;4.348;2023-06-14T06:48:05;14.13;;;7.70;;
21581;SDS011;10952;50.836;4.348;2023-06-14T06:50:31;14.93;;;7.87;;
21581;SDS011;10952;50.836;4.348;2023-06-14T06:52:57;24.10;;;11.90;;
21581;SDS011;10952;50.836;4.348;2023-06-14T06:55:23;17.10;;;9.90;;
21581;SDS011;10952;50.836;4.348;2023-06-14T06:57:49;16.17;;;7.73;;
21581;SDS011;10952;50.836;4.348;2023-06-14T07:00:15;14.77;;;7.70;;
21581;SDS011;10952;50.836;4.348;2023-06-14T07:02:42;16.55;;;7.43;;
21581;SDS011;10952;50.836;4.348;2023-06-14T07:05:08;13.18;;;7.57;;
21581;SDS011;10952;50.836;4.348;2023-06-14T07:07:34;13.18;;;7.18;;
21581;SDS011;10952;50.836;4.348;2023-06-14T07:09:59;21.07;;;7.03;;
21581;SDS011;10952;50.836;4.348;2023-06-14T07:12:25;15.90;;;7.03;;
21581;SDS011;10952;50.836;4.348;2023-06-14T07:14:51;13.13;;;7.38;;
21581;SDS011;10952;50.836;4.348;2023-06-14T07:17:17;14.85;;;7.13;;
21581;SDS011;10952;50.836;4.348;2023-06-14T07:19:42;15.95;;;7.22;;
21581;SDS011;10952;50.836;4.348;2023-06-14T07:22:08;18.92;;;7.88;;
21581;SDS011;10952;50.836;4.348;2023-06-14T07:24:33;18.77;;;7.75;;
21581;SDS011;10952;50.836;4.348;2023-06-14T07:27:01;21.98;;;10.38;;
21581;SDS011;10952;50.836;4.348;2023-06-14T07:29:28;12.15;;;7.40;;
21581;SDS011;10952;50.836;4.348;2023-06-14T07:31:53;16.23;;;7.53;;
21581;SDS011;10952;50.836;4.348;2023-06-14T07:34:19;11.80;;;6.95;;
21581;SDS011;10952;50.836;4.348;2023-06-14T07:36:45;15.48;;;8.05;;
21581;SDS011;10952;50.836;4.348;2023-06-14T07:39:11;18.13;;;6.55;;
21581;SDS011;10952;50.836;4.348;2023-06-14T07:41:36;17.38;;;7.32;;
21581;SDS011;10952;50.836;4.348;2023-06-14T07:44:02;14.15;;;7.38;;
21581;SDS011;10952;50.836;4.348;2023-06-14T07:46:28;12.00;;;7.18;;
21581;SDS011;10952;50.836;4.348;2023-06-14T07:48:53;10.65;;;6.03;;
21581;SDS011;10952;50.836;4.348;2023-06-14T07:51:19;15.90;;;6.15;;
21581;SDS011;10952;50.836;4.348;2023-06-14T07:53:46;13.98;;;7.25;;
21581;SDS011;10952;50.836;4.348;2023-06-14T07:56:12;15.32;;;6.90;;
21581;SDS011;10952;50.836;4.348;2023-06-14T07:58:38;19.35;;;6.85;;
21581;SDS011;10952;50.836;4.348;2023-06-14T08:01:04;17.83;;;6.25;;
21581;SDS011;10952;50.836;4.348;2023-06-14T08:03:31;11.02;;;6.38;;
21581;SDS011;10952;50.836;4.348;2023-06-14T08:05:57;15.55;;;6.38;;
21581;SDS011;10952;50.836;4.348;2023-06-14T08:08:23;17.25;;;6.80;;
21581;SDS011;10952;50.836;4.348;2023-06-14T08:10:48;16.95;;;6.85;;
21581;SDS011;10952;50.836;4.348;2023-06-14T08:13:14;16.58;;;6.97;;
21581;SDS011;10952;50.836;4.348;2023-06-14T08:15:40;14.35;;;7.00;;
21581;SDS011;10952;50.836;4.348;2023-06-14T08:18:05;17.42;;;6.90;;
21581;SDS011;10952;50.836;4.348;2023-06-14T08:20:31;17.77;;;7.03;;
21581;SDS011;10952;50.836;4.348;2023-06-14T08:22:57;10.45;;;6.20;;
21581;SDS011;10952;50.836;4.348;2023-06-14T08:25:23;12.18;;;6.82;;
21581;SDS011;10952;50.836;4.348;2023-06-14T08:27:49;14.77;;;6.20;;
21581;SDS011;10952;50.836;4.348;2023-06-14T08:30:15;13.23;;;6.40;;
21581;SDS011;10952;50.836;4.348;2023-06-14T08:32:42;22.33;;;6.95;;
21581;SDS011;10952;50.836;4.348;2023-06-14T08:35:08;15.80;;;6.80;;
21581;SDS011;10952;50.836;4.348;2023-06-14T08:37:37;19.83;;;6.53;;
21581;SDS011;10952;50.836;4.348;2023-06-14T08:40:05;10.00;;;6.07;;
21581;SDS011;10952;50.836;4.348;2023-06-14T08:42:41;18.35;;;6.57;;
21581;SDS011;10952;50.836;4.348;2023-06-14T08:45:07;18.45;;;7.10;;
21581;SDS011;10952;50.836;4.348;2023-06-14T08:47:33;14.95;;;7.10;;
21581;SDS011;10952;50.836;4.348;2023-06-14T08:50:02;13.30;;;6.32;;
21581;SDS011;10952;50.836;4.348;2023-06-14T08:52:29;13.88;;;6.95;;
21581;SDS011;10952;50.836;4.348;2023-06-14T08:55:05;14.90;;;6.47;;
21581;SDS011;10952;50.836;4.348;2023-06-14T08:57:31;15.07;;;7.35;;
21581;SDS011;10952;50.836;4.348;2023-06-14T09:00:02;14.48;;;6.70;;
21581;SDS011;10952;50.836;4.348;2023-06-14T09:02:35;11.73;;;6.25;;
21581;SDS011;10952;50.836;4.348;2023-06-14T09:05:00;26.25;;;8.77;;
21581;SDS011;10952;50.836;4.348;2023-06-14T09:07:26;13.07;;;6.45;;
21581;SDS011;10952;50.836;4.348;2023-06-14T09:10:05;15.85;;;6.78;;
21581;SDS011;10952;50.836;4.348;2023-06-14T09:12:38;12.52;;;7.18;;
21581;SDS011;10952;50.836;4.348;2023-06-14T09:15:07;22.08;;;7.38;;
21581;SDS011;10952;50.836;4.348;2023-06-14T09:17:36;16.00;;;7.60;;
21581;SDS011;10952;50.836;4.348;2023-06-14T09:20:03;10.38;;;7.13;;
21581;SDS011;10952;50.836;4.348;2023-06-14T09:22:38;12.73;;;7.88;;
21581;SDS011;10952;50.836;4.348;2023-06-14T09:25:05;18.00;;;7.18;;
21581;SDS011;10952;50.836;4.348;2023-06-14T09:27:31;11.77;;;6.63;;
21581;SDS011;10952;50.836;4.348;2023-06-14T09:29:57;13.10;;;6.95;;
21581;SDS011;10952;50.836;4.348;2023-06-14T09:32:23;21.77;;;7.47;;
21581;SDS011;10952;50.836;4.348;2023-06-14T09:34:50;15.23;;;6.88;;
21581;SDS011;10952;50.836;4.348;2023-06-14T09:37:28;14.93;;;6.38;;
21581;SDS011;10952;50.836;4.348;2023-06-14T09:39:55;14.68;;;6.35;;
21581;SDS011;10952;50.836;4.348;2023-06-14T09:42:20;14.65;;;5.97;;
21581;SDS011;10952;50.836;4.348;2023-06-14T09:44:48;13.00;;;6.70;;
21581;SDS011;10952;50.836;4.348;2023-06-14T09:47:15;10.15;;;5.82;;
21581;SDS011;10952;50.836;4.348;2023-06-14T09:49:41;11.90;;;6.13;;
21581;SDS011;10952;50.836;4.348;2023-06-14T09:52:14;8.35;;;5.57;;
21581;SDS011;10952;50.836;4.348;2023-06-14T09:54:44;12.77;;;5.72;;
21581;SDS011;10952;50.836;4.348;2023-06-14T09:57:12;10.98;;;6.47;;
21581;SDS011;10952;50.836;4.348;2023-06-14T09:59:40;10.73;;;6.10;;
21581;SDS011;10952;50.836;4.348;2023-06-14T10:02:14;13.82;;;5.82;;
21581;SDS011;10952;50.836;4.348;2023-06-14T10:05:11;12.88;;;6.45;;
21581;SDS011;10952;50.836;4.348;2023-06-14T10:10:06;7.82;;;5.65;;
21581;SDS011;10952;50.836;4.348;2023-06-14T10:12:32;33.20;;;8.60;;
21581;SDS011;10952;50.836;4.348;2023-06-14T10:14:58;11.80;;;5.43;;
21581;SDS011;10952;50.836;4.348;2023-06-14T10:22:58;10.23;;;5.72;;
21581;SDS011;10952;50.836;4.348;2023-06-14T10:25:29;17.70;;;7.45;;
21581;SDS011;10952;50.836;4.348;2023-06-14T10:28:28;15.65;;;6.60;;
21581;SDS011;10952;50.836;4.348;2023-06-14T10:31:22;9.93;;;5.45;;
21581;SDS011;10952;50.836;4.348;2023-06-14T10:38:56;10.52;;;5.40;;
21581;SDS011;10952;50.836;4.348;2023-06-14T10:41:31;12.00;;;6.30;;
21581;SDS011;10952;50.836;4.348;2023-06-14T10:46:53;11.38;;;5.07;;
21581;SDS011;10952;50.836;4.348;2023-06-14T10:49:20;8.93;;;5.10;;
21581;SDS011;10952;50.836;4.348;2023-06-14T10:52:07;14.75;;;6.10;;
21581;SDS011;10952;50.836;4.348;2023-06-14T10:54:36;13.05;;;5.32;;
21581;SDS011;10952;50.836;4.348;2023-06-14T10:57:03;13.70;;;5.43;;
21581;SDS011;10952;50.836;4.348;2023-06-14T10:59:32;12.30;;;5.60;;
21581;SDS011;10952;50.836;4.348;2023-06-14T11:05:03;11.20;;;5.38;;
21581;SDS011;10952;50.836;4.348;2023-06-14T11:10:22;8.77;;;5.20;;
21581;SDS011;10952;50.836;4.348;2023-06-14T11:13:05;9.10;;;4.55;;
21581;SDS011;10952;50.836;4.348;2023-06-14T11:15:34;13.45;;;5.53;;
21581;SDS011;10952;50.836;4.348;2023-06-14T11:18:05;9.02;;;5.07;;
21581;SDS011;10952;50.836;4.348;2023-06-14T11:20:34;11.13;;;5.70;;
21581;SDS011;10952;50.836;4.348;2023-06-14T11:23:01;11.40;;;5.65;;
21581;SDS011;10952;50.836;4.348;2023-06-14T11:25:28;17.58;;;5.53;;
21581;SDS011;10952;50.836;4.348;2023-06-14T11:27:54;8.25;;;4.93;;
21581;SDS011;10952;50.836;4.348;2023-06-14T11:30:21;9.00;;;5.00;;
21581;SDS011;10952;50.836;4.348;2023-06-14T11:32:47;13.07;;;6.20;;
21581;SDS011;10952;50.836;4.348;2023-06-14T11:35:15;14.18;;;5.28;;
21581;SDS011;10952;50.836;4.348;2023-06-14T11:37:42;8.02;;;4.97;;
21581;SDS011;10952;50.836;4.348;2023-06-14T11:40:09;12.52;;;5.57;;
21581;SDS011;10952;50.836;4.348;2023-06-14T11:42:37;10.55;;;4.80;;
21581;SDS011;10952;50.836;4.348;2023-06-14T11:45:04;15.45;;;9.18;;
21581;SDS011;10952;50.836;4.348;2023-06-14T11:47:33;9.05;;;4.97;;
21581;SDS011;10952;50.836;4.348;2023-06-14T11:50:00;10.32;;;4.47;;
21581;SDS011;10952;50.836;4.348;2023-06-14T11:52:27;38.72;;;7.15;;
21581;SDS011;10952;50.836;4.348;2023-06-14T11:54:53;15.38;;;5.28;;
21581;SDS011;10952;50.836;4.348;2023-06-14T11:57:19;11.80;;;5.53;;
21581;SDS011;10952;50.836;4.348;2023-06-14T11:59:45;7.20;;;4.63;;
21581;SDS011;10952;50.836;4.348;2023-06-14T12:02:17;10.95;;;4.50;;
21581;SDS011;10952;50.836;4.348;2023-06-14T12:04:51;9.02;;;4.20;;
21581;SDS011;10952;50.836;4.348;2023-06-14T12:07:18;12.02;;;5.03;;
21581;SDS011;10952;50.836;4.348;2023-06-14T12:12:23;8.75;;;4.93;;
21581;SDS011;10952;50.836;4.348;2023-06-14T12:14:52;10.93;;;5.10;;
21581;SDS011;10952;50.836;4.348;2023-06-14T12:17:21;11.20;;;4.88;;
21581;SDS011;10952;50.836;4.348;2023-06-14T12:19:48;12.70;;;5.10;;
21581;SDS011;10952;50.836;4.348;2023-06-14T12:22:15;12.40;;;4.80;;
21581;SDS011;10952;50.836;4.348;2023-06-14T12:24:45;12.38;;;4.93;;
21581;SDS011;10952;50.836;4.348;2023-06-14T12:27:11;11.63;;;4.60;;
21581;SDS011;10952;50.836;4.348;2023-06-14T12:29:44;8.85;;;4.50;;
21581;SDS011;10952;50.836;4.348;2023-06-14T12:32:10;12.50;;;4.72;;
21581;SDS011;10952;50.836;4.348;2023-06-14T12:34:36;27.17;;;11.93;;
21581;SDS011;10952;50.836;4.348;2023-06-14T12:37:02;8.00;;;4.25;;
21581;SDS011;10952;50.836;4.348;2023-06-14T12:39:31;11.77;;;4.80;;
21581;SDS011;10952;50.836;4.348;2023-06-14T12:41:57;9.07;;;4.68;;
21581;SDS011;10952;50.836;4.348;2023-06-14T12:44:24;9.60;;;4.32;;
21581;SDS011;10952;50.836;4.348;2023-06-14T12:46:50;7.38;;;4.75;;
21581;SDS011;10952;50.836;4.348;2023-06-14T12:49:18;11.80;;;4.65;;
21581;SDS011;10952;50.836;4.348;2023-06-14T12:51:45;10.73;;;4.45;;
21581;SDS011;10952;50.836;4.348;2023-06-14T12:54:10;11.90;;;4.57;;
21581;SDS011;10952;50.836;4.348;2023-06-14T12:56:37;11.88;;;4.63;;
21581;SDS011;10952;50.836;4.348;2023-06-14T12:59:02;11.50;;;5.32;;
21581;SDS011;10952;50.836;4.348;2023-06-14T13:01:28;6.30;;;4.43;;
21581;SDS011;10952;50.836;4.348;2023-06-14T13:03:54;13.88;;;4.03;;
21581;SDS011;10952;50.836;4.348;2023-06-14T13:06:23;8.82;;;4.25;;
21581;SDS011;10952;50.836;4.348;2023-06-14T13:08:49;42.40;;;7.70;;
21581;SDS011;10952;50.836;4.348;2023-06-14T13:11:15;10.68;;;4.35;;
21581;SDS011;10952;50.836;4.348;2023-06-14T13:13:41;7.13;;;4.30;;
21581;SDS011;10952;50.836;4.348;2023-06-14T13:16:06;13.50;;;3.95;;
21581;SDS011;10952;50.836;4.348;2023-06-14T13:18:32;9.65;;;4.18;;
21581;SDS011;10952;50.836;4.348;2023-06-14T13:20:58;11.43;;;4.70;;
21581;SDS011;10952;50.836;4.348;2023-06-14T13:23:23;10.43;;;5.30;;
21581;SDS011;10952;50.836;4.348;2023-06-14T13:25:49;13.63;;;4.28;;
21581;SDS011;10952;50.836;4.348;2023-06-14T13:28:16;12.88;;;4.70;;
21581;SDS011;10952;50.836;4.348;2023-06-14T13:30:41;11.55;;;7.05;;
21581;SDS011;10952;50.836;4.348;2023-06-14T13:33:07;12.30;;;5.43;;
21581;SDS011;10952;50.836;4.348;2023-06-14T13:35:33;13.82;;;3.80;;
21581;SDS011;10952;50.836;4.348;2023-06-14T13:37:59;18.27;;;8.77;;
21581;SDS011;10952;50.836;4.348;2023-06-14T13:40:25;9.05;;;3.60;;
21581;SDS011;10952;50.836;4.348;2023-06-14T13:42:51;6.72;;;3.47;;
21581;SDS011;10952;50.836;4.348;2023-06-14T13:45:16;8.25;;;3.88;;
21581;SDS011;10952;50.836;4.348;2023-06-14T13:47:42;10.20;;;3.28;;
21581;SDS011;10952;50.836;4.348;2023-06-14T13:50:08;8.68;;;3.58;;
21581;SDS011;10952;50.836;4.348;2023-06-14T13:52:34;7.13;;;3.70;;
21581;SDS011;10952;50.836;4.348;2023-06-14T13:55:00;15.48;;;4.72;;
21581;SDS011;10952;50.836;4.348;2023-06-14T13:57:27;6.55;;;3.63;;
21581;SDS011;10952;50.836;4.348;2023-06-14T13:59:52;13.43;;;4.68;;
21581;SDS011;10952;50.836;4.348;2023-06-14T14:02:20;8.77;;;3.47;;
21581;SDS011;10952;50.836;4.348;2023-06-14T14:04:46;9.40;;;4.00;;
21581;SDS011;10952;50.836;4.348;2023-06-14T14:07:17;11.18;;;3.42;;
21581;SDS011;10952;50.836;4.348;2023-06-14T14:09:44;12.10;;;4.65;;
21581;SDS011;10952;50.836;4.348;2023-06-14T14:12:10;8.80;;;3.17;;
21581;SDS011;10952;50.836;4.348;2023-06-14T14:14:36;38.15;;;7.15;;
21581;SDS011;10952;50.836;4.348;2023-06-14T14:17:02;5.38;;;2.83;;
21581;SDS011;10952;50.836;4.348;2023-06-14T14:19:27;11.73;;;3.00;;
21581;SDS011;10952;50.836;4.348;2023-06-14T14:21:53;5.40;;;2.72;;
21581;SDS011;10952;50.836;4.348;2023-06-14T14:24:19;9.70;;;3.15;;
21581;SDS011;10952;50.836;4.348;2023-06-14T14:26:45;15.68;;;3.35;;
21581;SDS011;10952;50.836;4.348;2023-06-14T14:29:13;5.00;;;2.80;;
21581;SDS011;10952;50.836;4.348;2023-06-14T14:31:39;6.90;;;2.50;;
21581;SDS011;10952;50.836;4.348;2023-06-14T14:34:05;5.65;;;2.80;;
21581;SDS011;10952;50.836;4.348;2023-06-14T14:36:30;6.40;;;2.17;;
21581;SDS011;10952;50.836;4.348;2023-06-14T14:38:58;9.30;;;3.20;;
21581;SDS011;10952;50.836;4.348;2023-06-14T14:41:24;8.25;;;2.50;;
21581;SDS011;10952;50.836;4.348;2023-06-14T14:43:49;8.15;;;2.55;;
21581;SDS011;10952;50.836;4.348;2023-06-14T14:46:15;6.50;;;2.55;;
21581;SDS011;10952;50.836;4.348;2023-06-14T14:48:41;12.77;;;3.28;;
21581;SDS011;10952;50.836;4.348;2023-06-14T14:51:07;7.68;;;2.38;;
21581;SDS011;10952;50.836;4.348;2023-06-14T14:53:33;4.70;;;2.22;;
21581;SDS011;10952;50.836;4.348;2023-06-14T14:55:59;7.43;;;2.70;;
21581;SDS011;10952;50.836;4.348;2023-06-14T14:58:25;6.68;;;2.40;;
21581;SDS011;10952;50.836;4.348;2023-06-14T15:00:51;6.55;;;2.47;;
21581;SDS011;10952;50.836;4.348;2023-06-14T15:03:16;6.38;;;2.17;;
21581;SDS011;10952;50.836;4.348;2023-06-14T15:05:42;7.28;;;2.33;;